sensor_id;sensor_type;location;lat;lon;timestamp;P1;durP1;ratioP1;P2;durP2;ratioP2
48596;SDS011;34382;43.160;24.148;2022-10-22T00:00:14;16.08;;;8.70;;
48596;SDS011;34382;43.160;24.148;2022-10-22T00:01:47;16.00;;;9.90;;
48596;SDS011;34382;43.160;24.148;2022-10-22T00:03:19;15.98;;;9.15;;
48596;SDS011;34382;43.160;24.148;2022-10-22T00:04:51;15.27;;;8.77;;
48596;SDS011;34382;43.160;24.148;2022-10-22T00:06:24;14.13;;;8.55;;
48596;SDS011;34382;43.160;24.148;2022-10-22T00:07:56;15.18;;;8.13;;
48596;SDS011;34382;43.160;24.148;2022-10-22T00:09:28;15.77;;;8.52;;
48596;SDS011;34382;43.160;24.148;2022-10-22T00:11:07;14.90;;;8.40;;
48596;SDS011;34382;43.160;24.148;2022-10-22T00:12:40;14.20;;;8.30;;
48596;SDS011;34382;43.160;24.148;2022-10-22T00:14:13;14.27;;;8.65;;
48596;SDS011;34382;43.160;24.148;2022-10-22T00:15:46;15.15;;;8.48;;
48596;SDS011;34382;43.160;24.148;2022-10-22T00:17:18;15.32;;;9.50;;
48596;SDS011;34382;43.160;24.148;2022-10-22T00:18:50;15.27;;;8.20;;
48596;SDS011;34382;43.160;24.148;2022-10-22T00:20:22;15.50;;;8.05;;
48596;SDS011;34382;43.160;24.148;2022-10-22T00:21:54;14.57;;;7.97;;
48596;SDS011;34382;43.160;24.148;2022-10-22T00:23:26;14.48;;;9.18;;
48596;SDS011;34382;43.160;24.148;2022-10-22T00:24:58;13.68;;;7.88;;
48596;SDS011;34382;43.160;24.148;2022-10-22T00:26:30;14.07;;;7.75;;
48596;SDS011;34382;43.160;24.148;2022-10-22T00:28:02;15.38;;;8.70;;
48596;SDS011;34382;43.160;24.148;2022-10-22T00:29:35;13.55;;;8.13;;
48596;SDS011;34382;43.160;24.148;2022-10-22T00:31:10;14.38;;;7.68;;
48596;SDS011;34382;43.160;24.148;2022-10-22T00:32:42;13.55;;;7.90;;
48596;SDS011;34382;43.160;24.148;2022-10-22T00:34:18;14.65;;;8.40;;
48596;SDS011;34382;43.160;24.148;2022-10-22T00:35:52;13.20;;;8.45;;
48596;SDS011;34382;43.160;24.148;2022-10-22T00:37:24;14.23;;;8.48;;
48596;SDS011;34382;43.160;24.148;2022-10-22T00:38:56;16.67;;;8.35;;
48596;SDS011;34382;43.160;24.148;2022-10-22T00:40:28;14.98;;;7.80;;
48596;SDS011;34382;43.160;24.148;2022-10-22T00:42:00;13.65;;;8.43;;
48596;SDS011;34382;43.160;24.148;2022-10-22T00:43:32;13.98;;;8.10;;
48596;SDS011;34382;43.160;24.148;2022-10-22T00:45:24;14.82;;;7.70;;
48596;SDS011;34382;43.160;24.148;2022-10-22T00:46:57;13.63;;;7.88;;
48596;SDS011;34382;43.160;24.148;2022-10-22T00:48:30;14.52;;;7.57;;
48596;SDS011;34382;43.160;24.148;2022-10-22T00:50:05;13.98;;;8.32;;
48596;SDS011;34382;43.160;24.148;2022-10-22T00:51:39;14.30;;;7.53;;
48596;SDS011;34382;43.160;24.148;2022-10-22T00:53:19;14.27;;;8.13;;
48596;SDS011;34382;43.160;24.148;2022-10-22T00:54:52;12.68;;;8.07;;
48596;SDS011;34382;43.160;24.148;2022-10-22T00:56:25;14.52;;;8.75;;
48596;SDS011;34382;43.160;24.148;2022-10-22T00:57:57;12.88;;;7.60;;
48596;SDS011;34382;43.160;24.148;2022-10-22T00:59:29;14.68;;;7.70;;
48596;SDS011;34382;43.160;24.148;2022-10-22T01:01:02;15.13;;;8.47;;
48596;SDS011;34382;43.160;24.148;2022-10-22T01:02:36;13.80;;;8.38;;
48596;SDS011;34382;43.160;24.148;2022-10-22T01:04:08;16.95;;;9.20;;
48596;SDS011;34382;43.160;24.148;2022-10-22T01:05:53;14.65;;;8.48;;
48596;SDS011;34382;43.160;24.148;2022-10-22T01:07:27;16.45;;;8.90;;
48596;SDS011;34382;43.160;24.148;2022-10-22T01:09:04;14.27;;;7.82;;
48596;SDS011;34382;43.160;24.148;2022-10-22T01:10:47;12.85;;;7.85;;
48596;SDS011;34382;43.160;24.148;2022-10-22T01:12:43;14.27;;;7.82;;
48596;SDS011;34382;43.160;24.148;2022-10-22T01:14:24;16.15;;;8.00;;
48596;SDS011;34382;43.160;24.148;2022-10-22T01:18:42;13.77;;;7.70;;
48596;SDS011;34382;43.160;24.148;2022-10-22T01:22:49;13.38;;;7.75;;
48596;SDS011;34382;43.160;24.148;2022-10-22T01:28:16;16.27;;;8.82;;
48596;SDS011;34382;43.160;24.148;2022-10-22T01:31:38;13.63;;;7.55;;
48596;SDS011;34382;43.160;24.148;2022-10-22T01:33:20;15.05;;;8.48;;
48596;SDS011;34382;43.160;24.148;2022-10-22T01:34:55;14.45;;;8.07;;
48596;SDS011;34382;43.160;24.148;2022-10-22T01:36:30;16.00;;;8.40;;
48596;SDS011;34382;43.160;24.148;2022-10-22T01:38:06;19.67;;;8.38;;
48596;SDS011;34382;43.160;24.148;2022-10-22T01:39:42;14.38;;;8.40;;
48596;SDS011;34382;43.160;24.148;2022-10-22T01:41:17;16.80;;;9.27;;
48596;SDS011;34382;43.160;24.148;2022-10-22T01:42:59;21.00;;;10.63;;
48596;SDS011;34382;43.160;24.148;2022-10-22T01:44:34;18.90;;;9.48;;
48596;SDS011;34382;43.160;24.148;2022-10-22T01:46:08;20.35;;;9.52;;
48596;SDS011;34382;43.160;24.148;2022-10-22T01:47:51;19.60;;;10.32;;
48596;SDS011;34382;43.160;24.148;2022-10-22T01:49:41;23.38;;;10.88;;
48596;SDS011;34382;43.160;24.148;2022-10-22T01:53:17;15.45;;;9.18;;
48596;SDS011;34382;43.160;24.148;2022-10-22T01:55:02;16.58;;;9.23;;
48596;SDS011;34382;43.160;24.148;2022-10-22T02:00:20;20.95;;;10.13;;
48596;SDS011;34382;43.160;24.148;2022-10-22T02:03:44;15.77;;;9.50;;
48596;SDS011;34382;43.160;24.148;2022-10-22T02:05:31;17.20;;;9.70;;
48596;SDS011;34382;43.160;24.148;2022-10-22T02:07:12;15.95;;;9.32;;
48596;SDS011;34382;43.160;24.148;2022-10-22T02:08:46;16.27;;;9.00;;
48596;SDS011;34382;43.160;24.148;2022-10-22T02:12:00;12.50;;;7.88;;
48596;SDS011;34382;43.160;24.148;2022-10-22T02:13:35;14.00;;;8.50;;
48596;SDS011;34382;43.160;24.148;2022-10-22T02:15:10;18.95;;;8.93;;
48596;SDS011;34382;43.160;24.148;2022-10-22T02:16:44;15.90;;;8.48;;
48596;SDS011;34382;43.160;24.148;2022-10-22T02:18:18;13.77;;;7.85;;
48596;SDS011;34382;43.160;24.148;2022-10-22T02:19:52;15.35;;;8.02;;
48596;SDS011;34382;43.160;24.148;2022-10-22T02:21:27;16.10;;;8.82;;
48596;SDS011;34382;43.160;24.148;2022-10-22T02:23:00;15.07;;;8.18;;
48596;SDS011;34382;43.160;24.148;2022-10-22T02:24:32;16.02;;;8.55;;
48596;SDS011;34382;43.160;24.148;2022-10-22T02:26:06;18.35;;;10.48;;
48596;SDS011;34382;43.160;24.148;2022-10-22T02:27:44;17.30;;;9.82;;
48596;SDS011;34382;43.160;24.148;2022-10-22T02:29:23;16.67;;;9.38;;
48596;SDS011;34382;43.160;24.148;2022-10-22T02:31:00;18.90;;;11.10;;
48596;SDS011;34382;43.160;24.148;2022-10-22T02:32:39;16.20;;;8.93;;
48596;SDS011;34382;43.160;24.148;2022-10-22T02:34:20;15.80;;;8.48;;
48596;SDS011;34382;43.160;24.148;2022-10-22T02:35:54;14.52;;;8.73;;
48596;SDS011;34382;43.160;24.148;2022-10-22T02:37:27;16.45;;;9.00;;
48596;SDS011;34382;43.160;24.148;2022-10-22T02:38:59;15.18;;;8.38;;
48596;SDS011;34382;43.160;24.148;2022-10-22T02:40:31;16.13;;;9.68;;
48596;SDS011;34382;43.160;24.148;2022-10-22T02:42:04;14.85;;;8.55;;
48596;SDS011;34382;43.160;24.148;2022-10-22T02:43:40;15.45;;;9.13;;
48596;SDS011;34382;43.160;24.148;2022-10-22T02:45:13;16.27;;;8.48;;
48596;SDS011;34382;43.160;24.148;2022-10-22T02:46:45;14.15;;;9.00;;
48596;SDS011;34382;43.160;24.148;2022-10-22T02:48:17;17.63;;;8.68;;
48596;SDS011;34382;43.160;24.148;2022-10-22T02:50:09;17.85;;;9.07;;
48596;SDS011;34382;43.160;24.148;2022-10-22T02:51:41;13.02;;;8.18;;
48596;SDS011;34382;43.160;24.148;2022-10-22T02:53:14;17.08;;;8.75;;
48596;SDS011;34382;43.160;24.148;2022-10-22T02:56:21;13.05;;;7.72;;
48596;SDS011;34382;43.160;24.148;2022-10-22T02:57:53;16.20;;;7.60;;
48596;SDS011;34382;43.160;24.148;2022-10-22T02:59:25;13.82;;;7.93;;
48596;SDS011;34382;43.160;24.148;2022-10-22T03:00:57;12.65;;;7.85;;
48596;SDS011;34382;43.160;24.148;2022-10-22T03:02:30;12.48;;;8.07;;
48596;SDS011;34382;43.160;24.148;2022-10-22T03:04:02;14.07;;;7.72;;
48596;SDS011;34382;43.160;24.148;2022-10-22T03:05:34;16.02;;;9.32;;
48596;SDS011;34382;43.160;24.148;2022-10-22T03:07:07;15.10;;;8.45;;
48596;SDS011;34382;43.160;24.148;2022-10-22T03:08:39;16.10;;;9.25;;
48596;SDS011;34382;43.160;24.148;2022-10-22T03:10:11;14.27;;;9.30;;
48596;SDS011;34382;43.160;24.148;2022-10-22T03:11:43;16.27;;;9.00;;
48596;SDS011;34382;43.160;24.148;2022-10-22T03:13:16;14.43;;;7.72;;
48596;SDS011;34382;43.160;24.148;2022-10-22T03:14:48;17.63;;;8.23;;
48596;SDS011;34382;43.160;24.148;2022-10-22T03:16:20;13.93;;;7.40;;
48596;SDS011;34382;43.160;24.148;2022-10-22T03:17:52;13.15;;;7.60;;
48596;SDS011;34382;43.160;24.148;2022-10-22T03:19:24;14.27;;;7.65;;
48596;SDS011;34382;43.160;24.148;2022-10-22T03:21:03;16.77;;;8.30;;
48596;SDS011;34382;43.160;24.148;2022-10-22T03:22:39;13.98;;;7.75;;
48596;SDS011;34382;43.160;24.148;2022-10-22T03:24:13;27.80;;;20.92;;
48596;SDS011;34382;43.160;24.148;2022-10-22T03:25:48;51.75;;;43.17;;
48596;SDS011;34382;43.160;24.148;2022-10-22T03:27:21;18.58;;;11.18;;
48596;SDS011;34382;43.160;24.148;2022-10-22T03:28:53;16.40;;;9.15;;
48596;SDS011;34382;43.160;24.148;2022-10-22T03:30:25;13.93;;;7.68;;
48596;SDS011;34382;43.160;24.148;2022-10-22T03:31:57;15.55;;;9.00;;
48596;SDS011;34382;43.160;24.148;2022-10-22T03:33:29;22.23;;;12.00;;
48596;SDS011;34382;43.160;24.148;2022-10-22T03:35:02;17.38;;;10.32;;
48596;SDS011;34382;43.160;24.148;2022-10-22T03:36:36;15.68;;;8.77;;
48596;SDS011;34382;43.160;24.148;2022-10-22T03:38:08;16.08;;;9.68;;
48596;SDS011;34382;43.160;24.148;2022-10-22T03:39:44;15.90;;;9.07;;
48596;SDS011;34382;43.160;24.148;2022-10-22T03:41:19;17.80;;;10.10;;
48596;SDS011;34382;43.160;24.148;2022-10-22T03:42:51;17.77;;;10.02;;
48596;SDS011;34382;43.160;24.148;2022-10-22T03:44:23;15.25;;;9.00;;
48596;SDS011;34382;43.160;24.148;2022-10-22T03:45:55;16.88;;;9.43;;
48596;SDS011;34382;43.160;24.148;2022-10-22T03:47:27;13.93;;;8.98;;
48596;SDS011;34382;43.160;24.148;2022-10-22T03:48:59;18.42;;;9.13;;
48596;SDS011;34382;43.160;24.148;2022-10-22T03:50:32;16.83;;;9.35;;
48596;SDS011;34382;43.160;24.148;2022-10-22T03:52:07;16.58;;;9.48;;
48596;SDS011;34382;43.160;24.148;2022-10-22T03:53:40;15.90;;;9.20;;
48596;SDS011;34382;43.160;24.148;2022-10-22T03:55:12;17.48;;;9.18;;
48596;SDS011;34382;43.160;24.148;2022-10-22T03:56:44;15.88;;;9.63;;
48596;SDS011;34382;43.160;24.148;2022-10-22T03:58:16;20.55;;;8.95;;
48596;SDS011;34382;43.160;24.148;2022-10-22T03:59:48;15.13;;;8.55;;
48596;SDS011;34382;43.160;24.148;2022-10-22T04:01:22;15.38;;;8.23;;
48596;SDS011;34382;43.160;24.148;2022-10-22T04:02:54;16.10;;;8.80;;
48596;SDS011;34382;43.160;24.148;2022-10-22T04:04:26;16.30;;;8.82;;
48596;SDS011;34382;43.160;24.148;2022-10-22T04:06:06;15.40;;;8.73;;
48596;SDS011;34382;43.160;24.148;2022-10-22T04:07:39;15.00;;;8.80;;
48596;SDS011;34382;43.160;24.148;2022-10-22T04:09:12;14.73;;;8.32;;
48596;SDS011;34382;43.160;24.148;2022-10-22T04:10:49;16.08;;;8.32;;
48596;SDS011;34382;43.160;24.148;2022-10-22T04:12:22;15.10;;;8.43;;
48596;SDS011;34382;43.160;24.148;2022-10-22T04:13:54;15.05;;;8.18;;
48596;SDS011;34382;43.160;24.148;2022-10-22T04:15:26;16.30;;;8.32;;
48596;SDS011;34382;43.160;24.148;2022-10-22T04:16:59;14.98;;;9.18;;
48596;SDS011;34382;43.160;24.148;2022-10-22T04:18:31;20.30;;;8.73;;
48596;SDS011;34382;43.160;24.148;2022-10-22T04:20:04;14.32;;;8.55;;
48596;SDS011;34382;43.160;24.148;2022-10-22T04:21:36;14.73;;;8.52;;
48596;SDS011;34382;43.160;24.148;2022-10-22T04:23:08;15.23;;;8.90;;
48596;SDS011;34382;43.160;24.148;2022-10-22T04:24:40;16.73;;;8.85;;
48596;SDS011;34382;43.160;24.148;2022-10-22T04:26:13;15.55;;;9.70;;
48596;SDS011;34382;43.160;24.148;2022-10-22T04:27:45;16.88;;;9.77;;
48596;SDS011;34382;43.160;24.148;2022-10-22T04:29:17;15.50;;;9.00;;
48596;SDS011;34382;43.160;24.148;2022-10-22T04:30:49;17.80;;;10.07;;
48596;SDS011;34382;43.160;24.148;2022-10-22T04:32:21;16.40;;;9.30;;
48596;SDS011;34382;43.160;24.148;2022-10-22T04:33:55;17.15;;;10.13;;
48596;SDS011;34382;43.160;24.148;2022-10-22T04:35:28;17.88;;;10.57;;
48596;SDS011;34382;43.160;24.148;2022-10-22T04:37:00;17.45;;;10.07;;
48596;SDS011;34382;43.160;24.148;2022-10-22T04:38:32;19.60;;;9.95;;
48596;SDS011;34382;43.160;24.148;2022-10-22T04:40:05;18.58;;;10.80;;
48596;SDS011;34382;43.160;24.148;2022-10-22T04:41:38;19.48;;;11.38;;
48596;SDS011;34382;43.160;24.148;2022-10-22T04:43:10;18.10;;;10.02;;
48596;SDS011;34382;43.160;24.148;2022-10-22T04:44:42;19.20;;;10.85;;
48596;SDS011;34382;43.160;24.148;2022-10-22T04:46:14;15.55;;;9.88;;
48596;SDS011;34382;43.160;24.148;2022-10-22T04:47:47;17.48;;;9.98;;
48596;SDS011;34382;43.160;24.148;2022-10-22T04:49:19;16.55;;;10.32;;
48596;SDS011;34382;43.160;24.148;2022-10-22T04:50:51;17.23;;;10.70;;
48596;SDS011;34382;43.160;24.148;2022-10-22T04:52:23;16.15;;;9.82;;
48596;SDS011;34382;43.160;24.148;2022-10-22T04:53:56;16.33;;;9.82;;
48596;SDS011;34382;43.160;24.148;2022-10-22T04:55:28;16.95;;;9.45;;
48596;SDS011;34382;43.160;24.148;2022-10-22T04:57:01;15.65;;;9.15;;
48596;SDS011;34382;43.160;24.148;2022-10-22T04:58:33;14.77;;;8.70;;
48596;SDS011;34382;43.160;24.148;2022-10-22T05:00:06;15.95;;;9.32;;
48596;SDS011;34382;43.160;24.148;2022-10-22T05:01:39;16.52;;;8.95;;
48596;SDS011;34382;43.160;24.148;2022-10-22T05:03:13;16.05;;;9.20;;
48596;SDS011;34382;43.160;24.148;2022-10-22T05:04:45;16.33;;;9.27;;
48596;SDS011;34382;43.160;24.148;2022-10-22T05:06:18;16.42;;;9.15;;
48596;SDS011;34382;43.160;24.148;2022-10-22T05:09:23;14.18;;;8.60;;
48596;SDS011;34382;43.160;24.148;2022-10-22T05:10:55;19.67;;;10.40;;
48596;SDS011;34382;43.160;24.148;2022-10-22T05:12:27;18.95;;;10.05;;
48596;SDS011;34382;43.160;24.148;2022-10-22T05:14:02;17.48;;;10.98;;
48596;SDS011;34382;43.160;24.148;2022-10-22T05:15:36;20.00;;;11.50;;
48596;SDS011;34382;43.160;24.148;2022-10-22T05:17:08;19.65;;;11.23;;
48596;SDS011;34382;43.160;24.148;2022-10-22T05:18:41;18.83;;;10.82;;
48596;SDS011;34382;43.160;24.148;2022-10-22T05:20:14;18.52;;;10.85;;
48596;SDS011;34382;43.160;24.148;2022-10-22T05:21:49;21.23;;;12.60;;
48596;SDS011;34382;43.160;24.148;2022-10-22T05:23:25;18.35;;;11.90;;
48596;SDS011;34382;43.160;24.148;2022-10-22T05:24:57;20.70;;;11.40;;
48596;SDS011;34382;43.160;24.148;2022-10-22T05:26:29;19.92;;;11.43;;
48596;SDS011;34382;43.160;24.148;2022-10-22T05:28:01;20.75;;;11.40;;
48596;SDS011;34382;43.160;24.148;2022-10-22T05:29:33;20.23;;;10.80;;
48596;SDS011;34382;43.160;24.148;2022-10-22T05:31:07;19.55;;;11.15;;
48596;SDS011;34382;43.160;24.148;2022-10-22T05:32:41;17.63;;;10.98;;
48596;SDS011;34382;43.160;24.148;2022-10-22T05:34:14;20.13;;;11.88;;
48596;SDS011;34382;43.160;24.148;2022-10-22T05:35:50;19.05;;;10.57;;
48596;SDS011;34382;43.160;24.148;2022-10-22T05:37:22;15.93;;;10.52;;
48596;SDS011;34382;43.160;24.148;2022-10-22T05:38:55;16.48;;;9.23;;
48596;SDS011;34382;43.160;24.148;2022-10-22T05:40:28;15.57;;;9.05;;
48596;SDS011;34382;43.160;24.148;2022-10-22T05:42:02;14.05;;;8.95;;
48596;SDS011;34382;43.160;24.148;2022-10-22T05:43:35;14.50;;;7.85;;
48596;SDS011;34382;43.160;24.148;2022-10-22T05:45:07;13.25;;;7.80;;
48596;SDS011;34382;43.160;24.148;2022-10-22T05:46:42;13.23;;;8.00;;
48596;SDS011;34382;43.160;24.148;2022-10-22T05:48:14;14.77;;;8.38;;
48596;SDS011;34382;43.160;24.148;2022-10-22T05:49:47;14.50;;;8.07;;
48596;SDS011;34382;43.160;24.148;2022-10-22T05:51:19;21.55;;;12.18;;
48596;SDS011;34382;43.160;24.148;2022-10-22T05:52:55;29.17;;;16.25;;
48596;SDS011;34382;43.160;24.148;2022-10-22T05:54:27;18.30;;;10.60;;
48596;SDS011;34382;43.160;24.148;2022-10-22T05:56:04;19.77;;;11.10;;
48596;SDS011;34382;43.160;24.148;2022-10-22T05:59:17;28.75;;;16.92;;
48596;SDS011;34382;43.160;24.148;2022-10-22T06:00:50;23.67;;;15.82;;
48596;SDS011;34382;43.160;24.148;2022-10-22T06:02:22;23.27;;;15.18;;
48596;SDS011;34382;43.160;24.148;2022-10-22T06:03:58;20.60;;;13.30;;
48596;SDS011;34382;43.160;24.148;2022-10-22T06:05:34;19.25;;;12.38;;
48596;SDS011;34382;43.160;24.148;2022-10-22T06:07:08;19.17;;;12.52;;
48596;SDS011;34382;43.160;24.148;2022-10-22T06:08:40;18.35;;;11.02;;
48596;SDS011;34382;43.160;24.148;2022-10-22T06:10:13;14.70;;;9.77;;
48596;SDS011;34382;43.160;24.148;2022-10-22T06:11:47;15.65;;;9.45;;
48596;SDS011;34382;43.160;24.148;2022-10-22T06:13:21;16.45;;;9.82;;
48596;SDS011;34382;43.160;24.148;2022-10-22T06:14:54;16.00;;;9.38;;
48596;SDS011;34382;43.160;24.148;2022-10-22T06:16:27;14.85;;;8.80;;
48596;SDS011;34382;43.160;24.148;2022-10-22T06:18:00;15.35;;;9.82;;
48596;SDS011;34382;43.160;24.148;2022-10-22T06:19:32;15.95;;;10.23;;
48596;SDS011;34382;43.160;24.148;2022-10-22T06:21:09;17.80;;;9.88;;
48596;SDS011;34382;43.160;24.148;2022-10-22T06:22:43;13.50;;;8.50;;
48596;SDS011;34382;43.160;24.148;2022-10-22T06:24:15;15.98;;;9.30;;
48596;SDS011;34382;43.160;24.148;2022-10-22T06:25:57;15.95;;;8.75;;
48596;SDS011;34382;43.160;24.148;2022-10-22T06:27:33;14.40;;;9.05;;
48596;SDS011;34382;43.160;24.148;2022-10-22T06:29:06;15.55;;;8.75;;
48596;SDS011;34382;43.160;24.148;2022-10-22T06:30:38;15.68;;;8.98;;
48596;SDS011;34382;43.160;24.148;2022-10-22T06:32:16;14.50;;;8.57;;
48596;SDS011;34382;43.160;24.148;2022-10-22T06:33:48;14.77;;;8.95;;
48596;SDS011;34382;43.160;24.148;2022-10-22T06:35:20;15.07;;;8.98;;
48596;SDS011;34382;43.160;24.148;2022-10-22T06:36:53;14.55;;;8.75;;
48596;SDS011;34382;43.160;24.148;2022-10-22T06:38:25;18.90;;;10.35;;
48596;SDS011;34382;43.160;24.148;2022-10-22T06:39:57;15.88;;;10.35;;
48596;SDS011;34382;43.160;24.148;2022-10-22T06:41:30;19.20;;;13.15;;
48596;SDS011;34382;43.160;24.148;2022-10-22T06:43:02;22.20;;;13.23;;
48596;SDS011;34382;43.160;24.148;2022-10-22T06:44:34;21.58;;;14.48;;
48596;SDS011;34382;43.160;24.148;2022-10-22T06:46:07;18.05;;;11.70;;
48596;SDS011;34382;43.160;24.148;2022-10-22T06:47:40;22.90;;;15.40;;
48596;SDS011;34382;43.160;24.148;2022-10-22T06:49:13;23.95;;;17.35;;
48596;SDS011;34382;43.160;24.148;2022-10-22T06:50:46;25.52;;;16.05;;
48596;SDS011;34382;43.160;24.148;2022-10-22T06:52:18;24.50;;;15.40;;
48596;SDS011;34382;43.160;24.148;2022-10-22T06:53:51;24.30;;;13.88;;
48596;SDS011;34382;43.160;24.148;2022-10-22T06:56:56;21.85;;;12.85;;
48596;SDS011;34382;43.160;24.148;2022-10-22T06:58:28;18.70;;;12.57;;
48596;SDS011;34382;43.160;24.148;2022-10-22T07:00:01;20.13;;;14.07;;
48596;SDS011;34382;43.160;24.148;2022-10-22T07:01:34;25.88;;;14.23;;
48596;SDS011;34382;43.160;24.148;2022-10-22T07:03:07;22.27;;;14.45;;
48596;SDS011;34382;43.160;24.148;2022-10-22T07:04:42;22.98;;;14.93;;
48596;SDS011;34382;43.160;24.148;2022-10-22T07:06:14;21.73;;;15.05;;
48596;SDS011;34382;43.160;24.148;2022-10-22T07:07:47;23.17;;;16.00;;
48596;SDS011;34382;43.160;24.148;2022-10-22T07:09:19;25.73;;;16.10;;
48596;SDS011;34382;43.160;24.148;2022-10-22T07:10:52;25.55;;;16.55;;
48596;SDS011;34382;43.160;24.148;2022-10-22T07:12:24;22.00;;;13.45;;
48596;SDS011;34382;43.160;24.148;2022-10-22T07:13:57;17.67;;;11.33;;
48596;SDS011;34382;43.160;24.148;2022-10-22T07:15:30;19.45;;;13.45;;
48596;SDS011;34382;43.160;24.148;2022-10-22T07:17:03;24.10;;;14.45;;
48596;SDS011;34382;43.160;24.148;2022-10-22T07:18:35;24.83;;;13.27;;
48596;SDS011;34382;43.160;24.148;2022-10-22T07:20:09;20.48;;;12.23;;
48596;SDS011;34382;43.160;24.148;2022-10-22T07:21:43;21.13;;;12.27;;
48596;SDS011;34382;43.160;24.148;2022-10-22T07:23:15;24.27;;;11.57;;
48596;SDS011;34382;43.160;24.148;2022-10-22T07:24:48;16.35;;;10.23;;
48596;SDS011;34382;43.160;24.148;2022-10-22T07:26:20;18.05;;;10.73;;
48596;SDS011;34382;43.160;24.148;2022-10-22T07:29:28;17.55;;;10.00;;
48596;SDS011;34382;43.160;24.148;2022-10-22T07:31:00;17.98;;;9.73;;
48596;SDS011;34382;43.160;24.148;2022-10-22T07:32:33;15.68;;;9.48;;
48596;SDS011;34382;43.160;24.148;2022-10-22T07:34:08;15.23;;;10.10;;
48596;SDS011;34382;43.160;24.148;2022-10-22T07:35:41;15.68;;;9.57;;
48596;SDS011;34382;43.160;24.148;2022-10-22T07:37:13;15.45;;;10.15;;
48596;SDS011;34382;43.160;24.148;2022-10-22T07:38:47;15.70;;;10.32;;
48596;SDS011;34382;43.160;24.148;2022-10-22T07:40:20;16.10;;;9.00;;
48596;SDS011;34382;43.160;24.148;2022-10-22T07:41:52;14.82;;;8.60;;
48596;SDS011;34382;43.160;24.148;2022-10-22T07:43:25;16.67;;;9.03;;
48596;SDS011;34382;43.160;24.148;2022-10-22T07:44:57;14.25;;;8.52;;
48596;SDS011;34382;43.160;24.148;2022-10-22T07:46:30;14.15;;;8.63;;
48596;SDS011;34382;43.160;24.148;2022-10-22T07:48:02;14.55;;;8.75;;
48596;SDS011;34382;43.160;24.148;2022-10-22T07:49:35;13.80;;;9.02;;
48596;SDS011;34382;43.160;24.148;2022-10-22T07:51:07;15.45;;;9.07;;
48596;SDS011;34382;43.160;24.148;2022-10-22T07:52:40;15.10;;;9.20;;
48596;SDS011;34382;43.160;24.148;2022-10-22T07:54:12;13.02;;;9.10;;
48596;SDS011;34382;43.160;24.148;2022-10-22T07:55:48;14.15;;;8.73;;
48596;SDS011;34382;43.160;24.148;2022-10-22T07:57:21;14.50;;;8.75;;
48596;SDS011;34382;43.160;24.148;2022-10-22T07:58:56;13.43;;;8.80;;
48596;SDS011;34382;43.160;24.148;2022-10-22T08:00:28;16.52;;;9.85;;
48596;SDS011;34382;43.160;24.148;2022-10-22T08:02:01;16.47;;;9.57;;
48596;SDS011;34382;43.160;24.148;2022-10-22T08:03:33;15.90;;;9.52;;
48596;SDS011;34382;43.160;24.148;2022-10-22T08:05:06;15.97;;;9.47;;
48596;SDS011;34382;43.160;24.148;2022-10-22T08:06:39;15.43;;;9.38;;
48596;SDS011;34382;43.160;24.148;2022-10-22T08:08:17;14.85;;;9.23;;
48596;SDS011;34382;43.160;24.148;2022-10-22T08:09:50;13.93;;;8.63;;
48596;SDS011;34382;43.160;24.148;2022-10-22T08:11:23;14.43;;;9.10;;
48596;SDS011;34382;43.160;24.148;2022-10-22T08:12:56;12.57;;;8.32;;
48596;SDS011;34382;43.160;24.148;2022-10-22T08:14:29;14.25;;;7.97;;
48596;SDS011;34382;43.160;24.148;2022-10-22T08:16:02;13.07;;;8.05;;
48596;SDS011;34382;43.160;24.148;2022-10-22T08:17:34;13.93;;;8.10;;
48596;SDS011;34382;43.160;24.148;2022-10-22T08:19:07;12.32;;;8.32;;
48596;SDS011;34382;43.160;24.148;2022-10-22T08:20:39;12.95;;;8.82;;
48596;SDS011;34382;43.160;24.148;2022-10-22T08:22:12;14.20;;;8.10;;
48596;SDS011;34382;43.160;24.148;2022-10-22T08:23:44;13.27;;;7.75;;
48596;SDS011;34382;43.160;24.148;2022-10-22T08:25:17;12.95;;;7.85;;
48596;SDS011;34382;43.160;24.148;2022-10-22T08:26:49;14.45;;;8.45;;
48596;SDS011;34382;43.160;24.148;2022-10-22T08:28:23;12.23;;;8.00;;
48596;SDS011;34382;43.160;24.148;2022-10-22T08:29:55;13.90;;;8.18;;
48596;SDS011;34382;43.160;24.148;2022-10-22T08:31:28;12.80;;;7.82;;
48596;SDS011;34382;43.160;24.148;2022-10-22T08:33:01;13.93;;;8.10;;
48596;SDS011;34382;43.160;24.148;2022-10-22T08:34:33;13.30;;;7.85;;
48596;SDS011;34382;43.160;24.148;2022-10-22T08:36:06;13.50;;;7.35;;
48596;SDS011;34382;43.160;24.148;2022-10-22T08:37:39;13.15;;;7.75;;
48596;SDS011;34382;43.160;24.148;2022-10-22T08:39:12;12.77;;;7.50;;
48596;SDS011;34382;43.160;24.148;2022-10-22T08:40:46;14.07;;;8.25;;
48596;SDS011;34382;43.160;24.148;2022-10-22T08:44:57;13.35;;;8.02;;
48596;SDS011;34382;43.160;24.148;2022-10-22T08:50:01;13.25;;;7.72;;
48596;SDS011;34382;43.160;24.148;2022-10-22T08:51:35;14.75;;;7.60;;
48596;SDS011;34382;43.160;24.148;2022-10-22T08:53:12;14.02;;;8.38;;
48596;SDS011;34382;43.160;24.148;2022-10-22T08:56:29;16.08;;;7.80;;
48596;SDS011;34382;43.160;24.148;2022-10-22T08:58:22;15.65;;;8.85;;
48596;SDS011;34382;43.160;24.148;2022-10-22T09:00:05;16.15;;;8.77;;
48596;SDS011;34382;43.160;24.148;2022-10-22T09:01:41;13.80;;;8.38;;
48596;SDS011;34382;43.160;24.148;2022-10-22T09:05:38;16.00;;;8.18;;
48596;SDS011;34382;43.160;24.148;2022-10-22T09:07:17;16.67;;;7.80;;
48596;SDS011;34382;43.160;24.148;2022-10-22T09:08:50;13.70;;;7.77;;
48596;SDS011;34382;43.160;24.148;2022-10-22T09:11:56;16.10;;;9.02;;
48596;SDS011;34382;43.160;24.148;2022-10-22T09:15:02;12.55;;;7.82;;
48596;SDS011;34382;43.160;24.148;2022-10-22T09:16:36;11.52;;;7.35;;
48596;SDS011;34382;43.160;24.148;2022-10-22T09:18:25;11.40;;;7.13;;
48596;SDS011;34382;43.160;24.148;2022-10-22T09:25:26;12.15;;;7.07;;
48596;SDS011;34382;43.160;24.148;2022-10-22T09:27:00;13.00;;;6.70;;
48596;SDS011;34382;43.160;24.148;2022-10-22T09:28:32;11.88;;;6.70;;
48596;SDS011;34382;43.160;24.148;2022-10-22T09:30:05;11.43;;;6.40;;
48596;SDS011;34382;43.160;24.148;2022-10-22T09:31:38;11.95;;;6.15;;
48596;SDS011;34382;43.160;24.148;2022-10-22T09:33:15;10.48;;;6.28;;
48596;SDS011;34382;43.160;24.148;2022-10-22T09:34:55;12.82;;;6.05;;
48596;SDS011;34382;43.160;24.148;2022-10-22T09:36:28;13.00;;;6.10;;
48596;SDS011;34382;43.160;24.148;2022-10-22T09:38:05;10.48;;;5.65;;
48596;SDS011;34382;43.160;24.148;2022-10-22T09:39:40;10.52;;;5.65;;
48596;SDS011;34382;43.160;24.148;2022-10-22T09:41:16;10.95;;;6.38;;
48596;SDS011;34382;43.160;24.148;2022-10-22T09:42:50;12.10;;;6.60;;
48596;SDS011;34382;43.160;24.148;2022-10-22T09:44:23;10.50;;;6.30;;
48596;SDS011;34382;43.160;24.148;2022-10-22T09:45:57;12.98;;;6.50;;
48596;SDS011;34382;43.160;24.148;2022-10-22T09:47:32;12.02;;;6.10;;
48596;SDS011;34382;43.160;24.148;2022-10-22T09:49:25;11.05;;;5.72;;
48596;SDS011;34382;43.160;24.148;2022-10-22T09:51:13;15.30;;;6.82;;
48596;SDS011;34382;43.160;24.148;2022-10-22T09:52:59;13.32;;;8.00;;
48596;SDS011;34382;43.160;24.148;2022-10-22T09:54:40;10.90;;;6.85;;